Jordan Village, Connecticut
Current Conditions -  °F | °C
As of 8:56 AM on Saturday 22 Nov 2014 (Local Time) from KGON Reporting Station
Clear Clear  
Wind Chill: 26°   Ceiling: Unl
Heat Index: 33°   Visibility: 7mi
Dew Point: 16°   Wind: 8mph
Humidity: 50%   Direction: 260°W
Pressure: 30.45"   Gusts: NA
Location:  41.3583°N, 72.1558°W
Report Text: KGON 221356Z 26007KT 7SM CLR 01/M09 A3045 RMK AO2 SLP309 T00061089
Loading
Personal Weather Stations






























Interactive Weather Map New forecast layout! Learn more

10-Day Weather Forecast

Advertisements
Track Severe Weather on mobile